Time;durP1;ratioP1;P1;durP2;ratioP2;P2;SDS_P1;SDS_P2;PMS_P1;PMS_P2;Temp;Humidity;BMP_temperature;BMP_pressure;BME280_temperature;BME280_humidity;BME280_pressure;Samples;Min_cycle;Max_cycle;Signal;HPM_P1;HPM_P2
2022/03/13 00:00:20;;;;;;;55.08;28.92;;;13.10;2099.20;;;;;;5070820;28;20115;-57
2022/03/13 00:02:46;;;;;;;53.03;26.92;;;13.00;2073.60;;;;;;4989525;28;20512;-58
2022/03/13 00:05:16;;;;;;;47.67;29.00;;;13.20;2073.60;;;;;;4973135;28;20034;-59
2022/03/13 00:07:43;;;;;;;61.22;29.02;;;13.50;2099.20;;;;;;4989292;28;20165;-59
2022/03/13 00:10:10;;;;;;;54.47;27.33;;;13.40;2099.20;;;;;;4989332;28;20027;-59
2022/03/13 00:12:37;;;;;;;65.05;34.53;;;13.40;2099.20;;;;;;4988805;28;20109;-58
2022/03/13 00:15:09;;;;;;;52.67;29.05;;;13.30;2099.20;;;;;;4989467;28;20033;-58
2022/03/13 00:17:35;;;;;;;46.40;25.00;;;13.20;2073.60;;;;;;4989363;28;20499;-56
2022/03/13 00:20:05;;;;;;;46.33;27.48;;;13.10;2073.60;;;;;;4989168;28;20130;-55
2022/03/13 00:22:33;;;;;;;59.83;32.28;;;13.30;2099.20;;;;;;4989028;28;20134;-57
2022/03/13 00:25:00;;;;;;;47.55;24.15;;;13.30;2073.60;;;;;;4988992;28;20053;-59
2022/03/13 00:27:29;;;;;;;41.80;20.95;;;13.20;2073.60;;;;;;4989049;28;20041;-57
2022/03/13 00:29:55;;;;;;;37.03;19.27;;;13.40;2099.20;;;;;;4989186;28;20030;-57
2022/03/13 00:32:22;;;;;;;39.13;19.67;;;13.40;2099.20;;;;;;4988696;28;20055;-56
2022/03/13 00:34:47;;;;;;;34.53;18.85;;;13.30;2073.60;;;;;;4988973;28;20069;-57
2022/03/13 00:37:13;;;;;;;49.22;26.52;;;13.30;2073.60;;;;;;4989008;28;20069;-57
2022/03/13 00:39:40;;;;;;;57.28;28.15;;;13.40;2099.20;;;;;;5036766;28;20043;-58
2022/03/13 00:42:06;;;;;;;63.25;33.58;;;13.30;2099.20;;;;;;5069912;28;20111;-59
2022/03/13 00:44:33;;;;;;;96.47;48.88;;;0.20;2073.60;;;;;;5070187;28;20459;-57
2022/03/13 00:46:59;;;;;;;78.15;37.45;;;13.40;2099.20;;;;;;5069902;28;20031;-57
2022/03/13 00:49:25;;;;;;;42.72;24.65;;;13.40;2099.20;;;;;;5070204;28;20028;-58
2022/03/13 00:51:51;;;;;;;45.25;26.23;;;13.50;2124.80;;;;;;5069977;28;20047;-57
2022/03/13 00:54:16;;;;;;;37.42;21.95;;;13.40;2124.80;;;;;;5070002;28;20028;-57
2022/03/13 00:56:42;;;;;;;57.75;29.75;;;13.50;2124.80;;;;;;5070029;28;20036;-57
2022/03/13 00:59:08;;;;;;;62.08;34.10;;;13.40;2124.80;;;;;;5068787;28;20024;-57
2022/03/13 01:01:34;;;;;;;83.18;43.38;;;13.50;2124.80;;;;;;5069418;28;20036;-56
2022/03/13 01:03:59;;;;;;;76.10;47.15;;;13.50;2124.80;;;;;;5069128;28;20103;-57
2022/03/13 01:06:25;;;;;;;45.90;24.67;;;13.50;2124.80;;;;;;5069699;28;20025;-57
2022/03/13 01:08:52;;;;;;;41.35;23.13;;;13.60;2124.80;;;;;;5069539;28;20032;-56
2022/03/13 01:11:19;;;;;;;50.05;25.20;;;13.60;2150.40;;;;;;5068695;28;20032;-59
2022/03/13 01:13:47;;;;;;;54.60;30.90;;;13.60;2150.40;;;;;;5066960;28;20094;-56
2022/03/13 01:16:16;;;;;;;51.95;29.17;;;13.60;2150.40;;;;;;5068870;28;20047;-56
2022/03/13 01:19:00;;;;;;;45.95;24.73;;;13.70;2150.40;;;;;;5069128;28;20063;-57
2022/03/13 01:21:30;;;;;;;42.50;24.38;;;38.40;2150.40;;;;;;5068648;28;20029;-57
2022/03/13 01:24:04;;;;;;;48.10;27.42;;;38.40;2150.40;;;;;;5069811;28;20056;-58
2022/03/13 01:26:34;;;;;;;46.60;23.50;;;38.40;2150.40;;;;;;5071980;28;20104;-57
2022/03/13 01:29:01;;;;;;;48.65;24.88;;;38.40;2150.40;;;;;;5070309;28;20428;-57
2022/03/13 01:31:34;;;;;;;56.50;32.15;;;38.40;2150.40;;;;;;5073264;28;20052;-58
2022/03/13 01:34:01;;;;;;;55.03;29.20;;;38.40;2150.40;;;;;;5073734;28;20134;-57
2022/03/13 01:36:27;;;;;;;72.45;38.83;;;38.40;2150.40;;;;;;5073857;28;20449;-57
2022/03/13 01:38:54;;;;;;;65.05;31.83;;;13.70;2150.40;;;;;;5073840;28;20021;-57
2022/03/13 01:41:21;;;;;;;48.97;25.90;;;13.70;2150.40;;;;;;5073651;28;20115;-60
2022/03/13 01:43:48;;;;;;;46.30;26.10;;;13.70;2176.00;;;;;;5073428;28;20029;-57
2022/03/13 01:46:14;;;;;;;45.75;24.88;;;38.50;2176.00;;;;;;5073707;28;20021;-59
2022/03/13 01:48:56;;;;;;;27.67;14.85;;;38.50;2176.00;;;;;;5073433;28;20028;-57
2022/03/13 01:51:23;;;;;;;26.90;16.67;;;38.40;2176.00;;;;;;5074015;28;20059;-59
2022/03/13 01:53:54;;;;;;;28.92;16.25;;;38.40;2176.00;;;;;;5073173;28;20032;-58
2022/03/13 01:56:21;;;;;;;29.98;16.75;;;38.40;2176.00;;;;;;5073092;28;20071;-57
2022/03/13 01:58:51;;;;;;;36.83;20.27;;;38.60;2176.00;;;;;;5073150;28;20060;-58
2022/03/13 02:01:23;;;;;;;29.40;17.52;;;38.60;2176.00;;;;;;5073462;28;20043;-57
2022/03/13 02:03:50;;;;;;;30.13;16.02;;;38.60;2176.00;;;;;;5073293;28;20028;-58
2022/03/13 02:06:16;;;;;;;17.95;10.95;;;38.70;2176.00;;;;;;5073161;28;20029;-58
2022/03/13 02:08:45;;;;;;;24.10;12.75;;;38.90;2201.60;;;;;;5073090;28;20081;-59
2022/03/13 02:11:15;;;;;;;23.30;12.17;;;39.30;2201.60;;;;;;5072882;28;20025;-58
2022/03/13 02:13:43;;;;;;;22.95;12.18;;;39.30;2201.60;;;;;;5073010;28;20056;-57
2022/03/13 02:16:10;;;;;;;21.50;12.93;;;39.30;2201.60;;;;;;5072716;28;20052;-56
2022/03/13 02:18:39;;;;;;;20.90;11.82;;;39.30;2201.60;;;;;;5073067;28;20039;-58
2022/03/13 02:21:06;;;;;;;20.38;11.50;;;39.00;2201.60;;;;;;5073010;28;20027;-59
2022/03/13 02:23:31;;;;;;;30.67;15.18;;;39.10;2201.60;;;;;;5072748;28;20391;-58
2022/03/13 02:26:01;;;;;;;25.30;14.98;;;39.10;2201.60;;;;;;5072893;28;20036;-58
2022/03/13 02:28:31;;;;;;;27.08;14.18;;;39.10;2201.60;;;;;;5072655;28;20017;-57
2022/03/13 02:31:03;;;;;;;28.07;14.93;;;39.20;2201.60;;;;;;5072111;28;20053;-57
2022/03/13 02:33:29;;;;;;;28.47;16.17;;;39.10;2201.60;;;;;;5071661;28;20048;-58
2022/03/13 02:36:00;;;;;;;34.25;17.88;;;39.10;2201.60;;;;;;5071188;28;20036;-57
2022/03/13 02:38:28;;;;;;;28.92;15.43;;;39.20;2201.60;;;;;;5071398;28;20024;-58
2022/03/13 02:40:55;;;;;;;37.47;18.13;;;39.30;2201.60;;;;;;5071565;28;20028;-59
2022/03/13 02:43:21;;;;;;;31.50;16.77;;;39.30;2201.60;;;;;;5071415;28;20058;-58
2022/03/13 02:45:49;;;;;;;30.27;17.40;;;39.20;2201.60;;;;;;5071263;28;20035;-58
2022/03/13 02:48:16;;;;;;;31.60;18.23;;;39.10;2201.60;;;;;;5071491;28;20571;-58
2022/03/13 02:50:42;;;;;;;39.55;21.45;;;39.10;2201.60;;;;;;5071376;28;20056;-58
2022/03/13 02:53:09;;;;;;;39.60;21.47;;;39.00;2201.60;;;;;;5071100;28;20056;-58
2022/03/13 02:55:36;;;;;;;46.78;21.63;;;38.90;2201.60;;;;;;5071352;28;20481;-58
2022/03/13 02:58:02;;;;;;;44.80;21.40;;;38.90;2201.60;;;;;;5070949;28;20060;-59
2022/03/13 03:00:48;;;;;;;39.60;19.80;;;39.00;2201.60;;;;;;5070778;28;20082;-56
2022/03/13 03:03:16;;;;;;;44.30;21.73;;;39.00;2201.60;;;;;;5071190;28;20471;-58
2022/03/13 03:05:42;;;;;;;47.88;22.55;;;38.90;2201.60;;;;;;5070858;28;20108;-58
2022/03/13 03:08:08;;;;;;;33.63;20.27;;;39.00;2201.60;;;;;;5071127;28;20103;-58
2022/03/13 03:10:35;;;;;;;26.35;14.32;;;39.00;2201.60;;;;;;5071068;28;20020;-57
2022/03/13 03:13:01;;;;;;;29.33;15.17;;;39.10;2201.60;;;;;;5070853;28;20051;-58
2022/03/13 03:15:27;;;;;;;42.72;22.92;;;39.00;2201.60;;;;;;5071169;28;20470;-60
2022/03/13 03:17:53;;;;;;;33.17;19.53;;;39.00;2201.60;;;;;;5070950;28;20479;-60
2022/03/13 03:20:20;;;;;;;34.78;17.30;;;38.90;2201.60;;;;;;5070622;28;20017;-58
2022/03/13 03:22:47;;;;;;;45.50;25.50;;;39.00;2201.60;;;;;;5070792;28;20029;-59
2022/03/13 03:25:13;;;;;;;36.35;17.27;;;39.00;2201.60;;;;;;5070867;28;20023;-59
2022/03/13 03:27:42;;;;;;;26.63;16.42;;;39.10;2201.60;;;;;;5070719;28;20039;-59
2022/03/13 03:30:09;;;;;;;25.63;14.53;;;39.10;2201.60;;;;;;5025889;28;1269415;-58
2022/03/13 03:32:35;;;;;;;24.57;13.97;;;39.20;2201.60;;;;;;5071517;28;20032;-59
2022/03/13 03:35:00;;;;;;;22.77;12.83;;;39.30;2201.60;;;;;;5071211;28;20027;-58
2022/03/13 03:37:26;;;;;;;61.77;30.70;;;64.00;2201.60;;;;;;5071595;28;20447;-59
2022/03/13 03:39:52;;;;;;;89.10;45.63;;;64.00;2201.60;;;;;;5071614;28;20380;-59
2022/03/13 03:42:18;;;;;;;98.53;52.30;;;39.20;2201.60;;;;;;5071165;28;20071;-60
2022/03/13 03:44:44;;;;;;;88.63;47.50;;;39.30;2201.60;;;;;;5071514;28;20137;-60
2022/03/13 03:47:09;;;;;;;57.90;31.50;;;39.20;2201.60;;;;;;5070271;28;20028;-59
2022/03/13 03:49:36;;;;;;;43.03;23.90;;;39.20;2201.60;;;;;;5071221;28;20078;-58
2022/03/13 03:52:02;;;;;;;31.70;16.83;;;39.10;2201.60;;;;;;5070888;28;20479;-59
2022/03/13 03:54:27;;;;;;;24.67;15.40;;;39.10;2201.60;;;;;;5071108;28;20030;-58
2022/03/13 03:56:53;;;;;;;26.53;14.43;;;39.30;2201.60;;;;;;5071208;28;20441;-59
2022/03/13 03:59:23;;;;;;;26.42;13.60;;;39.20;2201.60;;;;;;5070618;28;20028;-57
2022/03/13 04:01:49;;;;;;;26.43;13.73;;;39.10;2201.60;;;;;;5070938;28;20514;-58
2022/03/13 04:04:15;;;;;;;28.83;15.77;;;39.20;2201.60;;;;;;5071042;28;20055;-58
2022/03/13 04:06:41;;;;;;;102.60;55.50;;;39.30;2201.60;;;;;;5070379;28;20104;-57
2022/03/13 04:09:08;;;;;;;49.17;29.70;;;39.20;2201.60;;;;;;5070849;28;20017;-58
2022/03/13 04:11:35;;;;;;;31.65;17.58;;;39.20;2201.60;;;;;;5070932;28;20487;-58
2022/03/13 04:14:01;;;;;;;29.60;16.98;;;39.30;2201.60;;;;;;5070364;28;20017;-58
2022/03/13 04:16:27;;;;;;;34.73;23.60;;;39.30;2201.60;;;;;;5070824;28;20035;-56
2022/03/13 04:18:54;;;;;;;38.00;21.50;;;39.20;2201.60;;;;;;5070686;28;20025;-57
2022/03/13 04:21:22;;;;;;;37.80;21.27;;;39.20;2201.60;;;;;;5070492;28;20024;-57
2022/03/13 04:23:48;;;;;;;30.60;17.70;;;39.30;2201.60;;;;;;5070410;28;20062;-57
2022/03/13 04:26:14;;;;;;;33.43;19.83;;;39.30;2201.60;;;;;;5070630;28;20126;-57
2022/03/13 04:28:40;;;;;;;28.20;19.10;;;64.00;2201.60;;;;;;5069063;28;20391;-58
2022/03/13 04:31:08;;;;;;;23.67;13.67;;;39.30;2201.60;;;;;;5070337;28;20056;-57
2022/03/13 04:33:35;;;;;;;22.83;15.03;;;64.00;2201.60;;;;;;5070567;28;20050;-58
2022/03/13 04:36:11;;;;;;;28.70;20.23;;;64.00;2201.60;;;;;;5069005;28;20028;-57
2022/03/13 04:38:37;;;;;;;120.17;59.87;;;64.00;2201.60;;;;;;5070537;28;20040;-58
2022/03/13 04:41:03;;;;;;;53.77;32.67;;;39.30;2201.60;;;;;;5070079;28;20028;-57
2022/03/13 04:43:29;;;;;;;29.13;13.32;;;39.30;2201.60;;;;;;5070110;28;20028;-58
2022/03/13 04:45:54;;;;;;;22.08;14.07;;;64.00;2201.60;;;;;;5070503;28;20028;-58
2022/03/13 04:48:20;;;;;;;25.25;13.27;;;64.00;2201.60;;;;;;5070310;28;20024;-58
2022/03/13 04:50:47;;;;;;;27.30;12.37;;;64.00;2201.60;;;;;;5070246;28;20033;-58
2022/03/13 04:53:13;;;;;;;22.13;12.63;;;64.20;2201.60;;;;;;5070340;28;20027;-58
2022/03/13 04:55:39;;;;;;;23.90;13.57;;;64.10;2201.60;;;;;;5070016;28;20115;-57
2022/03/13 04:58:05;;;;;;;20.97;14.10;;;64.00;2201.60;;;;;;5070034;28;20104;-60
2022/03/13 05:00:31;;;;;;;21.73;14.23;;;64.00;2201.60;;;;;;5069864;28;20466;-57
2022/03/13 05:02:57;;;;;;;33.70;19.87;;;64.00;2201.60;;;;;;5070166;28;20036;-57
2022/03/13 05:05:23;;;;;;;32.60;18.63;;;39.30;2201.60;;;;;;5070194;28;20033;-58
2022/03/13 05:07:49;;;;;;;34.60;15.83;;;39.30;2201.60;;;;;;5070160;28;20021;-58
2022/03/13 05:10:18;;;;;;;32.77;16.37;;;39.30;2201.60;;;;;;5070272;28;20107;-56
2022/03/13 05:12:44;;;;;;;37.15;17.98;;;39.20;2201.60;;;;;;5070249;28;20028;-57
2022/03/13 05:15:10;;;;;;;28.10;16.70;;;39.20;2201.60;;;;;;5069723;28;20032;-57
2022/03/13 05:17:36;;;;;;;29.63;16.93;;;39.20;2201.60;;;;;;5069819;28;20040;-57
2022/03/13 05:20:02;;;;;;;27.50;15.20;;;39.10;2201.60;;;;;;5069664;28;20025;-57
2022/03/13 05:22:28;;;;;;;29.70;15.83;;;39.10;2201.60;;;;;;5069700;28;20039;-57
2022/03/13 05:24:54;;;;;;;27.60;16.77;;;39.10;2201.60;;;;;;5070142;28;20028;-58
2022/03/13 05:27:20;;;;;;;47.95;26.35;;;39.30;2201.60;;;;;;5069870;28;20116;-57
2022/03/13 05:29:46;;;;;;;82.87;41.63;;;39.00;2201.60;;;;;;5069461;28;20107;-57
2022/03/13 05:32:12;;;;;;;122.27;53.20;;;38.90;2201.60;;;;;;5071143;28;20057;-57
2022/03/13 05:34:38;;;;;;;58.10;27.87;;;38.80;2201.60;;;;;;5070476;28;20021;-59
2022/03/13 05:37:04;;;;;;;29.90;16.40;;;38.70;2201.60;;;;;;5073406;28;20043;-58
2022/03/13 05:39:29;;;;;;;34.00;18.75;;;38.80;2201.60;;;;;;5072451;28;20031;-62
2022/03/13 05:41:58;;;;;;;63.40;34.67;;;38.70;2201.60;;;;;;5072409;28;20025;-58
2022/03/13 05:44:24;;;;;;;69.05;33.53;;;38.70;2201.60;;;;;;5072768;28;20536;-61
2022/03/13 05:46:50;;;;;;;35.63;21.52;;;38.50;2201.60;;;;;;5072565;28;20055;-64
2022/03/13 05:49:15;;;;;;;32.37;15.80;;;38.40;2201.60;;;;;;5072856;28;20029;-60
2022/03/13 05:51:43;;;;;;;40.97;19.13;;;38.50;2201.60;;;;;;5072484;28;20074;-58
2022/03/13 05:54:09;;;;;;;26.02;15.18;;;38.40;2201.60;;;;;;5072719;28;20520;-59
2022/03/13 05:56:36;;;;;;;29.65;14.95;;;38.40;2201.60;;;;;;5072305;28;20055;-58
2022/03/13 05:59:02;;;;;;;36.20;18.63;;;13.70;2201.60;;;;;;5071660;28;20025;-58
2022/03/13 06:01:27;;;;;;;55.55;24.95;;;13.60;2201.60;;;;;;5071095;28;20036;-58
2022/03/13 06:03:53;;;;;;;50.65;22.50;;;13.50;2176.00;;;;;;5072749;28;20383;-60
2022/03/13 06:06:20;;;;;;;43.47;22.05;;;13.40;2150.40;;;;;;5070400;28;20036;-60
2022/03/13 06:08:46;;;;;;;46.53;19.92;;;13.30;2176.00;;;;;;5065731;28;20028;-56
2022/03/13 06:11:12;;;;;;;51.17;26.27;;;13.30;2150.40;;;;;;5070980;28;20449;-57
2022/03/13 06:13:38;;;;;;;30.88;19.95;;;13.20;2176.00;;;;;;5072187;28;20035;-58
2022/03/13 06:16:04;;;;;;;33.67;19.60;;;13.10;2201.60;;;;;;5072878;28;20029;-57
2022/03/13 06:18:32;;;;;;;47.13;25.50;;;13.00;2176.00;;;;;;5072762;28;20028;-58
2022/03/13 06:20:58;;;;;;;63.17;36.58;;;0.30;2150.40;;;;;;5072555;28;20028;-58
2022/03/13 06:23:24;;;;;;;64.10;38.90;;;77.00;1920.00;;;;;;5073144;28;20029;-59
2022/03/13 06:25:50;;;;;;;45.28;25.23;;;128.50;1689.60;;;;;;5072586;28;20032;-57
2022/03/13 06:28:19;;;;;;;67.50;35.97;;;179.90;1510.40;;;;;;5072667;28;20028;-57
2022/03/13 06:30:45;;;;;;;83.88;51.85;;;230.40;1433.60;;;;;;5072331;28;20057;-58
2022/03/13 06:33:11;;;;;;;90.28;58.13;;;256.60;1356.80;;;;;;5072423;28;20097;-57
2022/03/13 06:35:37;;;;;;;37.30;25.15;;;282.20;1254.40;;;;;;5072542;28;20115;-58
2022/03/13 06:38:02;;;;;;;38.97;28.02;;;307.70;1177.60;;;;;;5072498;28;20037;-58
2022/03/13 06:40:28;;;;;;;44.60;34.67;;;333.10;1177.60;;;;;;5072456;28;20024;-58
2022/03/13 06:42:55;;;;;;;32.50;28.88;;;333.30;1152.00;;;;;;5072662;28;20585;-58
2022/03/13 06:45:22;;;;;;;33.78;30.23;;;332.90;1177.60;;;;;;5072159;28;20478;-57
2022/03/13 06:47:52;;;;;;;41.15;30.05;;;333.20;1177.60;;;;;;5071329;28;20132;-58
2022/03/13 06:50:22;;;;;;;70.18;59.35;;;359.00;1100.80;;;;;;5071295;28;20035;-56
2022/03/13 06:52:49;;;;;;;66.18;55.97;;;384.10;1075.20;;;;;;5071877;28;20413;-58
2022/03/13 06:55:16;;;;;;;70.47;58.25;;;409.70;1049.60;;;;;;5072164;28;20067;-58
2022/03/13 06:57:43;;;;;;;56.50;49.97;;;435.30;998.40;;;;;;5071909;28;20039;-58
2022/03/13 07:00:10;;;;;;;33.75;29.60;;;435.80;972.80;;;;;;5071741;28;20071;-58
2022/03/13 07:02:36;;;;;;;45.97;39.22;;;460.80;947.20;;;;;;5072092;28;20120;-58
2022/03/13 07:05:02;;;;;;;33.78;28.05;;;436.10;921.60;;;;;;5071691;28;20052;-58
2022/03/13 07:07:28;;;;;;;35.30;28.63;;;460.80;947.20;;;;;;5071940;28;20032;-58
2022/03/13 07:09:57;;;;;;;32.22;28.40;;;436.10;921.60;;;;;;5072244;28;20020;-58
2022/03/13 07:12:23;;;;;;;49.30;40.50;;;436.10;921.60;;;;;;5071949;28;20032;-58
2022/03/13 07:14:49;;;;;;;45.10;36.65;;;460.90;921.60;;;;;;5071527;28;20024;-58
2022/03/13 07:17:16;;;;;;;54.58;42.05;;;460.90;947.20;;;;;;5071786;28;20316;-58
2022/03/13 07:19:43;;;;;;;70.55;57.05;;;461.70;896.00;;;;;;5071758;28;20020;-58
2022/03/13 07:22:16;;;;;;;75.68;56.63;;;487.00;870.40;;;;;;5070756;28;20470;-58
2022/03/13 07:24:46;;;;;;;53.80;44.97;;;512.50;819.20;;;;;;5071851;28;20029;-57
2022/03/13 07:27:13;;;;;;;54.15;42.50;;;512.50;793.60;;;;;;5071747;28;20314;-58
2022/03/13 07:29:39;;;;;;;48.17;39.85;;;512.90;793.60;;;;;;5071284;28;20078;-59
2022/03/13 07:32:05;;;;;;;56.10;47.13;;;537.80;793.60;;;;;;5071300;28;20143;-58
2022/03/13 07:34:31;;;;;;;58.88;48.63;;;538.50;768.00;;;;;;5070982;28;20111;-58
2022/03/13 07:36:57;;;;;;;56.60;49.28;;;538.10;793.60;;;;;;5071374;28;20090;-59
2022/03/13 07:39:22;;;;;;;76.05;65.22;;;563.50;793.60;;;;;;5071336;28;20048;-58
2022/03/13 07:41:49;;;;;;;74.47;66.18;;;563.60;793.60;;;;;;5071245;28;20044;-60
2022/03/13 07:44:15;;;;;;;81.70;70.68;;;538.50;793.60;;;;;;5071215;28;20352;-58
2022/03/13 07:46:41;;;;;;;89.93;80.20;;;538.00;793.60;;;;;;5071094;28;20055;-57
2022/03/13 07:49:07;;;;;;;101.90;91.15;;;537.90;793.60;;;;;;5071094;28;20028;-58
2022/03/13 07:51:34;;;;;;;84.72;74.95;;;563.80;793.60;;;;;;5071439;28;20026;-57
2022/03/13 07:54:01;;;;;;;106.53;91.90;;;588.90;768.00;;;;;;5068846;28;20047;-59
2022/03/13 07:56:27;;;;;;;98.85;88.00;;;589.30;768.00;;;;;;5069059;28;20548;-57
2022/03/13 07:58:53;;;;;;;93.68;82.88;;;589.20;742.40;;;;;;5068840;28;20036;-57
2022/03/13 08:01:19;;;;;;;93.43;83.28;;;588.90;768.00;;;;;;5069147;28;20089;-58
2022/03/13 08:03:45;;;;;;;98.82;88.68;;;589.40;742.40;;;;;;5069022;28;20038;-58
2022/03/13 08:06:11;;;;;;;101.25;90.00;;;589.60;742.40;;;;;;5068626;28;20067;-58
2022/03/13 08:08:37;;;;;;;103.55;92.38;;;614.50;742.40;;;;;;5069134;28;20056;-57
2022/03/13 08:11:03;;;;;;;125.72;113.30;;;615.00;716.80;;;;;;5069155;28;20067;-59
2022/03/13 08:13:29;;;;;;;110.50;99.07;;;615.20;716.80;;;;;;5068798;28;20043;-61
2022/03/13 08:15:55;;;;;;;106.32;95.32;;;640.00;716.80;;;;;;5069046;28;20036;-60
2022/03/13 08:18:21;;;;;;;118.38;106.28;;;615.00;716.80;;;;;;5069023;28;20098;-60
2022/03/13 08:20:47;;;;;;;108.70;97.72;;;589.70;742.40;;;;;;5068318;28;20017;-57
2022/03/13 08:23:14;;;;;;;83.63;74.65;;;615.20;691.20;;;;;;5069065;28;20036;-61
2022/03/13 08:25:40;;;;;;;77.88;69.68;;;589.70;716.80;;;;;;5068588;28;20036;-57
2022/03/13 08:28:06;;;;;;;85.90;76.68;;;640.10;665.60;;;;;;5068909;28;20020;-60
2022/03/13 08:30:34;;;;;;;68.78;54.28;;;615.10;665.60;;;;;;5068236;28;20055;-60
2022/03/13 08:32:59;;;;;;;49.13;37.55;;;614.60;691.20;;;;;;5067908;28;20029;-60
2022/03/13 08:35:25;;;;;;;56.45;50.20;;;614.60;691.20;;;;;;5068692;28;20031;-60
2022/03/13 08:37:52;;;;;;;38.03;34.00;;;614.80;691.20;;;;;;5068392;28;20485;-55
2022/03/13 08:40:18;;;;;;;39.85;32.53;;;614.70;665.60;;;;;;5068535;28;20103;-56
2022/03/13 08:42:44;;;;;;;31.63;28.42;;;640.30;640.00;;;;;;5068600;28;20047;-57
2022/03/13 08:45:11;;;;;;;37.17;32.55;;;665.60;640.00;;;;;;5066415;28;20020;-56
2022/03/13 08:47:38;;;;;;;42.08;33.03;;;665.90;640.00;;;;;;5067699;28;20024;-57
2022/03/13 08:50:06;;;;;;;31.75;28.45;;;665.60;640.00;;;;;;5065856;28;20535;-57
2022/03/13 08:52:32;;;;;;;34.58;30.35;;;640.30;640.00;;;;;;5070319;28;20028;-58
2022/03/13 08:54:57;;;;;;;39.50;35.55;;;640.10;640.00;;;;;;5069825;28;20465;-57
2022/03/13 08:57:23;;;;;;;28.15;25.23;;;665.90;640.00;;;;;;5070329;28;20029;-59
2022/03/13 08:59:49;;;;;;;35.63;31.85;;;640.70;614.40;;;;;;5069733;28;20425;-61
2022/03/13 09:02:19;;;;;;;36.28;29.88;;;640.00;640.00;;;;;;5070095;28;20414;-59
2022/03/13 09:04:45;;;;;;;35.40;31.77;;;640.60;614.40;;;;;;5070051;28;20070;-57
2022/03/13 09:07:10;;;;;;;31.58;28.27;;;640.40;614.40;;;;;;5069894;28;20024;-58
2022/03/13 09:09:36;;;;;;;39.90;34.45;;;614.60;665.60;;;;;;5069537;28;20027;-57
2022/03/13 09:12:02;;;;;;;32.70;28.85;;;563.70;716.80;;;;;;5069525;28;20029;-57
2022/03/13 09:14:28;;;;;;;34.97;29.05;;;538.00;716.80;;;;;;5069644;28;20056;-58
2022/03/13 09:16:54;;;;;;;29.33;21.50;;;487.10;742.40;;;;;;5070018;28;20074;-57
2022/03/13 09:19:20;;;;;;;26.13;20.77;;;486.40;768.00;;;;;;5069430;28;20024;-57
2022/03/13 09:21:46;;;;;;;17.65;14.38;;;461.00;819.20;;;;;;5069751;28;20471;-57
2022/03/13 09:24:12;;;;;;;19.27;16.00;;;410.00;819.20;;;;;;5067303;28;20033;-57
2022/03/13 09:26:41;;;;;;;18.58;14.70;;;384.70;819.20;;;;;;5067780;28;20025;-56
2022/03/13 09:29:08;;;;;;;19.23;14.50;;;359.00;870.40;;;;;;5067676;28;20634;-56
2022/03/13 09:31:34;;;;;;;23.02;16.83;;;333.70;896.00;;;;;;5068383;28;20110;-56
2022/03/13 09:34:00;;;;;;;23.38;16.17;;;333.40;947.20;;;;;;5067964;28;20028;-57
2022/03/13 09:36:26;;;;;;;26.42;18.63;;;333.50;972.80;;;;;;5067350;28;20429;-56
2022/03/13 09:38:53;;;;;;;26.30;17.27;;;333.10;998.40;;;;;;5068032;28;20108;-54
2022/03/13 09:41:19;;;;;;;23.50;16.75;;;332.90;998.40;;;;;;5068724;28;20077;-59
2022/03/13 09:43:46;;;;;;;23.20;15.45;;;333.00;998.40;;;;;;5070085;28;20031;-56
2022/03/13 09:46:12;;;;;;;28.50;21.17;;;332.90;972.80;;;;;;5071935;28;20078;-54
2022/03/13 09:48:38;;;;;;;22.83;16.58;;;308.00;998.40;;;;;;5073277;28;20082;-54
2022/03/13 09:51:05;;;;;;;24.50;17.20;;;281.80;998.40;;;;;;5073325;28;20025;-55
2022/03/13 09:53:31;;;;;;;20.77;14.43;;;282.10;998.40;;;;;;5073390;28;20363;-54
2022/03/13 09:55:57;;;;;;;19.58;13.55;;;282.30;972.80;;;;;;5072649;28;20032;-54
2022/03/13 09:58:23;;;;;;;25.05;19.35;;;282.30;1024.00;;;;;;5072740;28;20028;-55
2022/03/13 10:00:48;;;;;;;39.92;29.05;;;307.30;1049.60;;;;;;5072291;28;20471;-55
2022/03/13 10:03:14;;;;;;;30.52;21.35;;;307.40;1024.00;;;;;;5072759;28;20039;-55
2022/03/13 10:05:44;;;;;;;28.63;18.88;;;307.30;1024.00;;;;;;5072414;28;20115;-55
2022/03/13 10:08:12;;;;;;;24.80;17.75;;;307.20;1049.60;;;;;;5072655;28;20040;-53
2022/03/13 10:10:45;;;;;;;24.15;17.25;;;282.30;1024.00;;;;;;5072553;28;20016;-55
2022/03/13 10:13:17;;;;;;;22.35;17.30;;;281.90;1024.00;;;;;;5072428;28;20100;-54
2022/03/13 10:15:48;;;;;;;27.20;18.05;;;281.90;1024.00;;;;;;5070526;28;20025;-56
2022/03/13 10:18:17;;;;;;;24.77;18.42;;;281.80;1049.60;;;;;;5072254;28;20025;-55
2022/03/13 10:20:45;;;;;;;30.48;19.95;;;281.80;1024.00;;;;;;5072278;28;20410;-55
2022/03/13 10:23:12;;;;;;;47.40;27.85;;;282.10;998.40;;;;;;5072670;28;20099;-55
2022/03/13 10:25:42;;;;;;;32.35;21.58;;;282.40;1024.00;;;;;;5072664;28;20032;-55
2022/03/13 10:28:11;;;;;;;26.58;19.17;;;282.20;1024.00;;;;;;5072574;28;20073;-55
2022/03/13 10:30:37;;;;;;;29.38;20.58;;;282.40;1049.60;;;;;;5070100;28;20052;-57
2022/03/13 10:33:03;;;;;;;26.90;18.05;;;307.30;1049.60;;;;;;5071082;28;20036;-54
2022/03/13 10:35:29;;;;;;;26.20;18.80;;;282.40;998.40;;;;;;5070782;28;20090;-55
2022/03/13 10:37:55;;;;;;;28.10;20.60;;;282.50;972.80;;;;;;5070923;28;20036;-55
2022/03/13 10:40:24;;;;;;;28.88;19.48;;;307.20;998.40;;;;;;5070558;28;20024;-55
2022/03/13 10:42:53;;;;;;;29.58;19.13;;;282.50;972.80;;;;;;5069225;28;20067;-57
2022/03/13 10:45:37;;;;;;;35.67;22.27;;;282.50;998.40;;;;;;5069292;28;20086;-56
2022/03/13 10:48:32;;;;;;;30.38;23.02;;;282.50;998.40;;;;;;5068606;28;20441;-55
2022/03/13 10:51:04;;;;;;;26.83;18.15;;;282.10;1075.20;;;;;;5067582;28;20021;-58
2022/03/13 10:53:31;;;;;;;38.80;21.63;;;282.20;1024.00;;;;;;5069062;28;20568;-55
2022/03/13 10:56:07;;;;;;;31.63;22.25;;;282.50;1075.20;;;;;;5068732;28;20017;-54
2022/03/13 10:58:40;;;;;;;32.58;22.95;;;282.40;1049.60;;;;;;5066752;28;20397;-55
2022/03/13 11:01:16;;;;;;;33.45;22.55;;;282.20;1049.60;;;;;;5069317;28;20028;-57
2022/03/13 11:03:49;;;;;;;30.67;22.05;;;282.20;1049.60;;;;;;5069272;28;20489;-55
2022/03/13 11:06:15;;;;;;;28.67;20.75;;;282.50;1075.20;;;;;;5066918;28;20093;-56
2022/03/13 11:08:41;;;;;;;34.97;19.67;;;282.00;1049.60;;;;;;5068355;28;20032;-54
2022/03/13 11:11:12;;;;;;;28.10;20.10;;;282.00;1024.00;;;;;;5068875;28;20020;-55
2022/03/13 11:13:39;;;;;;;28.80;21.88;;;281.90;1024.00;;;;;;5068821;28;20024;-56
2022/03/13 11:16:09;;;;;;;28.85;19.33;;;281.90;1024.00;;;;;;5069979;28;20112;-53
2022/03/13 11:18:35;;;;;;;30.52;19.77;;;282.20;998.40;;;;;;5070236;28;20028;-55
2022/03/13 11:21:04;;;;;;;33.53;22.85;;;282.20;1049.60;;;;;;5069809;28;20028;-56
2022/03/13 11:23:32;;;;;;;34.63;21.50;;;282.30;1024.00;;;;;;5069479;28;20089;-54
2022/03/13 11:25:58;;;;;;;39.40;23.38;;;282.10;1024.00;;;;;;5069815;28;20052;-57
2022/03/13 11:28:26;;;;;;;36.20;26.33;;;282.20;1049.60;;;;;;5069739;28;20036;-56
2022/03/13 11:30:52;;;;;;;24.75;17.35;;;282.20;1049.60;;;;;;5068264;28;20530;-54
2022/03/13 11:33:39;;;;;;;27.33;16.80;;;281.70;1024.00;;;;;;5068675;28;20032;-54
2022/03/13 11:36:28;;;;;;;31.30;20.08;;;281.70;1049.60;;;;;;5066904;28;20025;-54
2022/03/13 11:39:03;;;;;;;25.02;16.55;;;256.90;1024.00;;;;;;5068441;28;20017;-56
2022/03/13 11:41:38;;;;;;;24.73;15.88;;;281.70;1024.00;;;;;;5068564;28;20028;-58
2022/03/13 11:44:22;;;;;;;23.33;17.88;;;256.90;998.40;;;;;;5067273;28;20040;-58
2022/03/13 11:46:51;;;;;;;25.55;19.20;;;256.80;998.40;;;;;;5067544;28;20024;-57
2022/03/13 11:49:26;;;;;;;32.83;22.25;;;256.80;1049.60;;;;;;5066407;28;20029;-56
2022/03/13 11:52:17;;;;;;;20.35;15.02;;;256.90;1049.60;;;;;;5069532;28;20029;-60
2022/03/13 11:55:04;;;;;;;25.02;14.95;;;256.50;1024.00;;;;;;5069499;28;20052;-56
2022/03/13 11:57:44;;;;;;;29.65;19.23;;;256.90;1024.00;;;;;;5068200;28;20482;-56
2022/03/13 12:00:10;;;;;;;28.73;16.20;;;281.70;1049.60;;;;;;5068986;28;20111;-55
2022/03/13 12:02:41;;;;;;;41.38;24.02;;;281.80;1049.60;;;;;;5068679;28;20103;-55
2022/03/13 12:05:25;;;;;;;27.02;16.05;;;281.70;1024.00;;;;;;5069239;28;20028;-59
2022/03/13 12:08:12;;;;;;;61.15;39.08;;;256.70;1024.00;;;;;;5068604;28;20020;-57